Lost River, Indiana
Current Conditions -  °F | °C
As of 9:15 PM on Sunday 28 Dec 2014 (Local Time) from KHNB Reporting Station
Overcast Overcast  
Wind Chill: 27°   Ceiling: 1800
Heat Index: 32°   Visibility: 10mi
Dew Point: 27°   Wind: 5mph
Humidity: 80%   Direction: 360°N
Pressure: 30.22"   Gusts: NA
Location:  38.4941°N, 86.6155°W
Report Text: KHNB 290215Z AUTO 36004KT 10SM OVC018 00/M03 A3022 RMK AO1
Loading
Personal Weather Stations






























Interactive Weather Map New forecast layout! Learn more

10-Day Weather Forecast

Advertisements
Track Severe Weather on mobile